Flight Track Log - Related Links

Times and Time Zones

All times are in EDT time to prevent confusion due to time zone crossing. See the UAL4274 flight status page for this flight to view local times or setup timezone preferences in your user account.

Time Position Orientation Groundspeed Altitude Reporting Facility
EDT Latitude Longitude Course Direction KTS MPH feet Rate Location/Type
Thu 02:49:55 PM 29.9781 -95.2933 127° Southeast 172 198 600  Level Houston Center
Thu 02:50:26 PM 29.9633 -95.2711 127° Southeast 193 222 1,400 1,247 Climbing Houston Center
Thu 02:51:12 PM 29.9328 -95.2436 142° Southeast 228 262 2,200 1,770 Climbing Houston Center
Thu 02:51:27 PM 29.9064 -95.2225 145° Southeast 254 292 3,200 2,571 Climbing Houston Center
Thu 02:52:15 PM 29.8608 -95.1822 143° Southeast 251 289 4,900 2,182 Climbing Houston Center
Thu 02:53:17 PM 29.7917 -95.1267 145° Southeast 294 338 7,200 2,419 Climbing Houston Center
Thu 02:54:19 PM 29.7158 -95.0806 152° Southeast 305 351 9,900 2,129 Climbing Houston Center
Thu 02:55:21 PM 29.6342 -95.0417 158° South 308 354 11,600 1,500 Climbing Houston Center
Thu 02:56:23 PM 29.5425 -94.9986 158° South 348 400 13,000 1,403 Climbing Houston Center
Thu 02:57:25 PM 29.4500 -94.9536 157° South 357 411 14,500 1,403 Climbing Houston Center
Thu 02:58:27 PM 29.3539 -94.9075 157° South 370 426 15,900 1,500 Climbing Houston Center
Thu 02:59:29 PM 29.2617 -94.8481 151° Southeast 384 442 17,600 1,776 Climbing Houston Center
Thu 03:00:32 PM 29.1911 -94.7222 123° Southeast 394 453 19,600 1,728 Climbing Houston Center
Thu 03:01:34 PM 29.1358 -94.6164 121° Southeast 390 449 21,200 1,597 Climbing Houston Center
Thu 03:02:36 PM 29.0797 -94.5106 121° Southeast 390 449 22,900 1,935 Climbing Houston Center
Thu 03:03:38 PM 29.0281 -94.4103 120° Southeast 370 426 25,200 1,548 Climbing Houston Center
Thu 03:04:40 PM 28.9967 -94.2967 108° East 400 460 26,100 1,258 Climbing Houston Center
Thu 03:05:42 PM 28.9983 -94.1386 89° East 416 479 27,800 1,258 Climbing Houston Center
Thu 03:06:44 PM 28.9983 -94.0053 90° East 421 484 28,700 576 Climbing Houston Center
Thu 03:07:47 PM 28.9986 -93.8669 90° East 432 497 29,000 96 Climbing Houston Center
Thu 03:08:49 PM 28.9989 -93.7308 90° East 453 521 28,900 -48 Descending Houston Center
Thu 03:09:51 PM 29.0003 -93.5417 89° East 492 566 28,900 339 Level Houston Center
Thu 03:10:53 PM 29.0003 -93.3811 90° East 505 581 29,600 774 Climbing Houston Center
Thu 03:11:55 PM 28.9997 -93.2233 90° East 502 578 30,500 919 Climbing Houston Center
Thu 03:12:57 PM 29.0006 -93.0675 90° East 495 570 31,500 968 Climbing Houston Center
Thu 03:13:59 PM 29.0000 -92.9106 90° East 494 568 32,500 1,016 Climbing Houston Center
Thu 03:15:01 PM 29.0008 -92.7250 90° East 492 566 33,600 1,008 Climbing Houston Center
Thu 03:16:04 PM 29.0003 -92.5739 90° East 482 555 34,600 672 Climbing Houston Center
Thu 03:17:06 PM 28.9994 -92.4231 90° East 478 550 35,000 194 Climbing Houston Center
Thu 03:18:08 PM 28.9981 -92.2692 91° East 484 557 35,000  Level Houston Center
Thu 03:19:10 PM 28.9972 -92.1083 109° East 497 572 35,000  Level Houston Center
Thu 03:20:12 PM 28.9961 -91.9128 90° East 510 587 35,000  Level Houston Center
Thu 03:21:14 PM 28.9958 -91.7497 90° East 516 594 35,000  Level Houston Center
Thu 03:22:16 PM 29.0131 -91.5908 83° East 528 608 35,000  Level Houston Center
Thu 03:23:19 PM 29.0322 -91.4217 83° East 537 618 35,000  Level Houston Center
Thu 03:24:21 PM 29.0558 -91.2194 82° East 537 618 35,000  Level Houston Center
Thu 03:25:23 PM 29.0747 -91.0492 83° East 540 621 35,000 -48 Level Houston Center
Thu 03:26:25 PM 29.1275 -90.8853 70° East 551 634 34,900 -48 Descending Houston Center
Thu 03:27:27 PM 29.1853 -90.7225 68° East 555 639 34,900  Level Houston Center
Thu 03:28:30 PM 29.2314 -90.5581 72° East 549 632 34,900 48 Level Houston Center
Thu 03:29:31 PM 29.2144 -90.3600 96° East 519 597 35,000 48 Climbing Houston Center
Thu 03:30:34 PM 29.1931 -90.2006 99° East 514 592 35,000 624 Level Houston Center
Thu 03:31:36 PM 29.2364 -90.0436 72° East 519 597 36,300 968 Climbing Houston Center
Thu 03:32:38 PM 29.3328 -89.9322 45° Northeast 494 568 37,000 339 Climbing Houston Center
Thu 03:33:40 PM 29.4333 -89.8197 44° Northeast 500 575 37,000  Level Houston Center
Thu 03:34:42 PM 29.5047 -89.6467 65° Northeast 511 588 37,000 -48 Level Houston Center
Thu 03:35:44 PM 29.5075 -89.4847 89° East 512 589 36,900 -48 Descending Houston Center
Thu 03:36:46 PM 29.5042 -89.3231 91° East 510 587 36,900  Level Houston Center
Thu 03:37:48 PM 29.5175 -89.1608 85° East 529 609 36,900 48 Level Houston Center
Thu 03:38:51 PM 29.5656 -89.0089 70° East 515 593 37,000 48 Climbing Houston Center
Thu 03:39:53 PM 29.6547 -88.8428 58° Northeast 514 592 37,000  Level Houston Center
Thu 03:40:55 PM 29.7331 -88.7022 57° Northeast 524 603 37,000  Level Houston Center
Thu 03:41:57 PM 29.8111 -88.5597 58° Northeast 528 608 37,000  Level Houston Center
Thu 03:42:59 PM 29.8897 -88.4181 57° Northeast 528 608 37,000  Level Houston Center
Thu 03:44:01 PM 29.9731 -88.2656 58° Northeast 532 612 37,000  Level Houston Center
Thu 03:45:03 PM 30.0528 -88.1192 58° Northeast 538 619 37,000  Level Houston Center
Thu 03:46:06 PM 30.1319 -87.9756 57° Northeast 536 617 37,000  Level Houston Center
Thu 03:46:28 PM 30.1636 -87.9108 60° Northeast 523 602 37,000  Level Jacksonville Center
Thu 03:47:28 PM 30.2444 -87.7636 58° Northeast 523 602 37,000  Level Jacksonville Center
Thu 03:48:28 PM 30.3231 -87.6161 58° Northeast 523 602 37,000  Level Jacksonville Center
Thu 03:49:28 PM 30.4036 -87.4683 58° Northeast 523 602 37,000  Level Jacksonville Center
Thu 03:50:28 PM 30.4778 -87.3153 61° Northeast 528 608 37,000  Level Jacksonville Center
Thu 03:51:28 PM 30.4983 -87.1425 82° East 528 608 37,000  Level Jacksonville Center
Thu 03:52:28 PM 30.5125 -86.9650 85° East 533 613 37,000  Level Jacksonville Center
Thu 03:53:28 PM 30.5239 -86.8014 85° East 533 613 37,000  Level Jacksonville Center
Thu 03:54:28 PM 30.5392 -86.6356 84° East 527 606 37,000  Level Jacksonville Center
Thu 03:55:28 PM 30.5503 -86.4672 86° East 521 600 37,000 -50 Level Jacksonville Center
Thu 03:56:28 PM 30.5444 -86.3006 92° East 512 589 36,900  Descending Jacksonville Center
Thu 03:57:28 PM 30.4983 -86.1494 109° East 503 579 37,000 50 Climbing Jacksonville Center
Thu 03:58:28 PM 30.4519 -85.9986 110° East 498 573 37,000  Level Jacksonville Center
Thu 03:59:28 PM 30.4078 -85.8406 108° East 504 580 37,000  Level Jacksonville Center
Thu 04:00:28 PM 30.3611 -85.6875 109° East 510 587 37,000  Level Jacksonville Center
Thu 04:01:28 PM 30.3164 -85.5347 109° East 505 581 37,000  Level Jacksonville Center
Thu 04:02:28 PM 30.2714 -85.3819 109° East 505 581 37,000  Level Jacksonville Center
Thu 04:03:28 PM 30.2264 -85.2317 109° East 505 581 37,000  Level Jacksonville Center
Thu 04:04:28 PM 30.1811 -85.0744 108° East 505 581 37,000  Level Jacksonville Center
Thu 04:05:28 PM 30.1356 -84.9244 109° East 505 581 37,000  Level Jacksonville Center
Thu 04:06:28 PM 30.0878 -84.7697 110° East 505 581 37,000  Level Jacksonville Center
Thu 04:07:28 PM 30.0400 -84.6131 109° East 511 588 37,000  Level Jacksonville Center
Thu 04:08:28 PM 29.9919 -84.4539 109° East 511 588 37,000  Level Jacksonville Center
Thu 04:09:28 PM 29.9456 -84.2972 109° East 511 588 37,000  Level Jacksonville Center
Thu 04:10:28 PM 29.8931 -84.1264 109° East 511 588 37,000  Level Jacksonville Center
Thu 04:11:28 PM 29.8444 -83.9700 110° East 511 588 37,000  Level Jacksonville Center
Thu 04:12:28 PM 29.7533 -83.8542 132° Southeast 498 573 37,000  Level Jacksonville Center
Thu 04:13:28 PM 29.6414 -83.7814 151° Southeast 466 536 37,000 -200 Level Jacksonville Center
Thu 04:14:28 PM 29.5228 -83.7064 151° Southeast 466 536 36,600 -650 Descending Jacksonville Center
Thu 04:15:28 PM 29.4106 -83.6339 151° Southeast 471 542 35,700 -800 Descending Jacksonville Center
Thu 04:16:28 PM 29.2939 -83.5592 151° Southeast 471 542 35,000 -350 Descending Jacksonville Center
Thu 04:17:28 PM 29.1794 -83.4872 151° Southeast 471 542 35,000 -300 Level Jacksonville Center
Thu 04:18:28 PM 29.0692 -83.4175 151° Southeast 471 542 34,400 -750 Descending Jacksonville Center
Thu 04:19:28 PM 28.9567 -83.3458 151° Southeast 466 536 33,500 -900 Descending Jacksonville Center
Thu 04:20:28 PM 28.8464 -83.3003 160° South 466 536 32,600 -950 Descending Jacksonville Center
Thu 04:21:28 PM 28.7211 -83.2547 162° South 466 536 31,600 -1,000 Descending Jacksonville Center
Thu 04:22:28 PM 28.6003 -83.2117 163° South 466 536 30,600 -950 Descending Jacksonville Center
Thu 04:23:28 PM 28.4772 -83.1664 162° South 461 531 29,700 -950 Descending Jacksonville Center
Thu 04:24:28 PM 28.3397 -83.1189 163° South 461 531 28,700 -955 Descending Jacksonville Center
Thu 04:24:56 PM 28.2942 -83.1036 164° South 460 529 28,300 -886 Descending Miami Center
Thu 04:25:56 PM 28.1711 -83.0567 161° South 475 547 27,400 -650 Descending Miami Center
Thu 04:26:56 PM 28.0500 -83.0100 161° South 470 541 27,000 -200 Descending Miami Center
Thu 04:27:56 PM 27.9314 -82.9544 158° South 470 541 27,000  Level Miami Center
Thu 04:28:56 PM 27.8106 -82.9008 159° South 470 541 27,000 -200 Level Miami Center
Thu 04:29:56 PM 27.6797 -82.8378 157° South 465 535 26,600 -700 Descending Miami Center
Thu 04:30:56 PM 27.5628 -82.7872 159° South 465 535 25,600 -1,300 Descending Miami Center
Thu 04:31:56 PM 27.4603 -82.7422 159° South 457 526 24,000 -1,600 Descending Miami Center
Thu 04:32:56 PM 27.3497 -82.6922 158° South 428 493 22,400 -1,650 Descending Miami Center
Thu 04:33:56 PM 27.2414 -82.6400 157° South 428 493 20,700 -1,800 Descending Miami Center
Thu 04:34:56 PM 27.1403 -82.5581 144° Southeast 416 479 18,800 -1,850 Descending Miami Center
Thu 04:35:56 PM 27.0572 -82.4933 145° Southeast 410 472 17,000 -1,900 Descending Miami Center
Thu 04:36:56 PM 26.9700 -82.4239 145° Southeast 399 459 15,000 -2,000 Descending Miami Center
Thu 04:37:56 PM 26.8869 -82.3594 145° Southeast 389 448 13,000 -1,950 Descending Miami Center
Thu 04:38:56 PM 26.8061 -82.2928 144° Southeast 377 434 11,100 -1,200 Descending Miami Center
Thu 04:39:56 PM 26.7369 -82.2408 146° Southeast 340 391 10,600 -1,250 Descending Miami Center
Thu 04:40:56 PM 26.6761 -82.1914 144° Southeast 298 343 8,600 -2,100 Descending Miami Center
Thu 04:41:56 PM 26.6203 -82.1192 131° Southeast 273 314 6,400 -1,900 Descending Miami Center
Thu 04:42:56 PM 26.5808 -82.0547 124° Southeast 263 303 4,800 -1,650 Descending Miami Center
Thu 04:43:56 PM 26.5436 -81.9881 122° Southeast 263 303 3,100 -1,700 Descending Miami Center

Login

Don't have an account? Register now (free) for customized features, flight alerts, and more!